createdAt,value
2022-10-24T00:01:29.710Z,13.11
2022-10-24T00:04:00.346Z,13.26
2022-10-24T00:06:30.994Z,13.20
2022-10-24T00:09:01.482Z,13.14
2022-10-24T00:11:31.824Z,13.16
2022-10-24T00:14:02.304Z,13.16
2022-10-24T00:16:32.745Z,13.04
2022-10-24T00:19:03.178Z,13.02
2022-10-24T00:21:33.667Z,12.92
2022-10-24T00:24:03.964Z,12.92
2022-10-24T00:26:35.198Z,12.93
2022-10-24T00:29:06.291Z,12.99
2022-10-24T00:31:36.917Z,12.96
2022-10-24T00:34:07.338Z,12.94
2022-10-24T00:36:37.866Z,12.92
2022-10-24T00:39:08.265Z,12.90
2022-10-24T00:41:43.097Z,12.93
2022-10-24T00:44:24.902Z,12.92
2022-10-24T00:47:00.989Z,12.95
2022-10-24T00:49:34.475Z,12.94
2022-10-24T00:52:07.954Z,12.96
2022-10-24T00:54:40.523Z,12.91
2022-10-24T00:57:32.059Z,12.92
2022-10-24T01:00:14.675Z,13.00
2022-10-24T01:02:45.918Z,12.93
2022-10-24T01:05:17.727Z,12.88
2022-10-24T01:08:14.005Z,12.82
2022-10-24T01:11:05.668Z,12.79
2022-10-24T01:13:42.171Z,12.78
2022-10-24T01:16:42.613Z,12.76
2022-10-24T01:19:40.503Z,12.82
2022-10-24T01:22:20.018Z,12.82
2022-10-24T01:25:03.677Z,12.90
2022-10-24T01:27:55.721Z,12.89
2022-10-24T01:30:28.291Z,12.92
2022-10-24T01:33:04.561Z,12.97
2022-10-24T01:35:46.895Z,12.97
2022-10-24T01:38:23.337Z,12.93
2022-10-24T01:40:59.827Z,12.96
2022-10-24T01:43:42.471Z,12.96
2022-10-24T01:46:16.451Z,12.97
2022-10-24T01:48:50.037Z,12.86
2022-10-24T01:51:23.614Z,12.84
2022-10-24T01:53:55.485Z,12.84
2022-10-24T01:56:27.223Z,12.81
2022-10-24T01:59:08.940Z,12.84
2022-10-24T02:01:40.193Z,12.80
2022-10-24T02:04:13.741Z,12.76
2022-10-24T02:06:45.631Z,12.73
2022-10-24T02:09:19.480Z,12.72
2022-10-24T02:11:52.499Z,12.78
2022-10-24T02:14:41.122Z,12.72
2022-10-24T02:17:11.681Z,12.68
2022-10-24T02:19:43.548Z,12.65
2022-10-24T02:22:44.456Z,12.74
2022-10-24T02:25:17.938Z,12.64
2022-10-24T02:28:09.640Z,12.63
2022-10-24T02:30:46.224Z,12.64
2022-10-24T02:33:18.189Z,12.58
2022-10-24T02:35:52.541Z,12.58
2022-10-24T02:38:28.488Z,12.58
2022-10-24T02:41:01.784Z,12.58
2022-10-24T02:43:34.905Z,12.55
2022-10-24T02:46:06.472Z,12.56
2022-10-24T02:48:39.875Z,12.52
2022-10-24T02:51:11.345Z,12.53
2022-10-24T02:53:43.712Z,12.48
2022-10-24T02:56:14.301Z,12.45
2022-10-24T02:58:44.913Z,12.47
2022-10-24T03:01:15.491Z,12.43
2022-10-24T03:03:46.075Z,12.41
2022-10-24T03:06:16.684Z,12.38
2022-10-24T03:08:47.110Z,12.38
2022-10-24T03:11:17.982Z,12.36
2022-10-24T03:13:48.286Z,12.42
2022-10-24T03:16:18.668Z,12.38
2022-10-24T03:18:49.077Z,12.35
2022-10-24T03:21:19.635Z,12.34
2022-10-24T03:23:50.918Z,12.34
2022-10-24T03:26:21.404Z,12.42
2022-10-24T03:28:51.897Z,12.35
2022-10-24T03:31:22.318Z,12.38
2022-10-24T03:33:52.889Z,12.36
2022-10-24T03:36:23.278Z,12.35
2022-10-24T03:38:53.570Z,12.33
2022-10-24T03:41:24.478Z,12.36
2022-10-24T03:43:54.896Z,12.40
2022-10-24T03:46:25.426Z,12.35
2022-10-24T03:48:55.958Z,12.44
2022-10-24T03:51:26.494Z,12.42
2022-10-24T03:53:56.882Z,12.44
2022-10-24T03:56:27.467Z,12.40
2022-10-24T03:58:57.886Z,12.42
2022-10-24T04:01:28.391Z,12.32
2022-10-24T04:03:58.846Z,12.34
2022-10-24T04:06:31.338Z,12.31
2022-10-24T04:09:01.290Z,12.31
2022-10-24T04:11:31.630Z,12.31
2022-10-24T04:16:34.830Z,12.34
2022-10-24T04:19:05.429Z,12.36
2022-10-24T04:21:35.688Z,12.30
2022-10-24T04:24:06.618Z,12.32
2022-10-24T04:26:37.816Z,12.32
2022-10-24T04:29:08.199Z,12.34
2022-10-24T04:31:38.790Z,12.36
2022-10-24T04:34:09.107Z,12.34
2022-10-24T04:36:39.492Z,12.33
2022-10-24T04:39:09.906Z,12.34
2022-10-24T04:41:40.317Z,12.36
2022-10-24T04:44:10.692Z,12.40
2022-10-24T04:46:41.069Z,12.50
2022-10-24T04:49:11.460Z,12.44
2022-10-24T04:51:41.789Z,12.46
2022-10-24T04:54:12.162Z,12.39
2022-10-24T04:56:45.597Z,12.50
2022-10-24T04:59:15.931Z,12.55
2022-10-24T05:01:46.360Z,12.53
2022-10-24T05:04:16.794Z,12.48
2022-10-24T05:06:47.264Z,12.53
2022-10-24T05:09:17.651Z,12.54
2022-10-24T05:11:47.997Z,12.63
2022-10-24T05:14:18.375Z,12.61
2022-10-24T05:16:49.256Z,12.53
2022-10-24T05:19:20.216Z,12.57
2022-10-24T05:21:50.626Z,12.59
2022-10-24T05:24:20.989Z,12.54
2022-10-24T05:26:51.331Z,12.54
2022-10-24T05:29:21.873Z,12.52
2022-10-24T05:31:52.216Z,12.57
2022-10-24T05:34:22.566Z,12.53
2022-10-24T05:36:53.420Z,12.55
2022-10-24T05:39:23.627Z,12.53
2022-10-24T05:41:55.386Z,12.54
2022-10-24T05:44:25.932Z,12.46
2022-10-24T05:46:56.616Z,12.46
2022-10-24T05:49:26.963Z,12.48
2022-10-24T05:51:57.453Z,12.48
2022-10-24T05:54:33.444Z,12.44
2022-10-24T05:56:59.986Z,12.42
2022-10-24T05:59:30.425Z,12.38
2022-10-24T06:02:00.847Z,12.42
2022-10-24T06:04:31.246Z,12.42
2022-10-24T06:07:01.597Z,12.43
2022-10-24T06:09:31.982Z,12.40
2022-10-24T06:12:02.407Z,12.41
2022-10-24T06:14:32.724Z,12.44
2022-10-24T06:17:05.210Z,12.47
2022-10-24T06:19:36.704Z,12.44
2022-10-24T06:22:08.997Z,12.46
2022-10-24T06:24:39.642Z,12.46
2022-10-24T06:27:10.507Z,12.47
2022-10-24T06:29:40.809Z,12.57
2022-10-24T06:32:15.664Z,12.52
2022-10-24T06:34:45.964Z,12.56
2022-10-24T06:37:16.426Z,12.55
2022-10-24T06:39:46.845Z,12.50
2022-10-24T06:42:17.329Z,12.60
2022-10-24T06:44:47.770Z,12.61
2022-10-24T06:47:18.771Z,12.57
2022-10-24T06:49:49.163Z,12.65
2022-10-24T06:52:19.580Z,12.61
2022-10-24T06:54:50.126Z,12.72
2022-10-24T06:57:20.533Z,12.69
2022-10-24T06:59:50.878Z,12.74
2022-10-24T07:02:21.356Z,12.78
2022-10-24T07:04:51.832Z,12.80
2022-10-24T07:07:23.158Z,12.82
2022-10-24T07:09:55.513Z,12.81
2022-10-24T07:12:26.589Z,12.90
2022-10-24T07:14:57.124Z,12.88
2022-10-24T07:17:27.661Z,13.06
2022-10-24T07:19:57.982Z,13.16
2022-10-24T07:22:30.318Z,13.18
2022-10-24T07:25:00.464Z,13.26
2022-10-24T07:27:30.878Z,13.39
2022-10-24T07:30:04.726Z,13.50
2022-10-24T07:32:33.271Z,13.58
2022-10-24T07:35:03.583Z,13.66
2022-10-24T07:37:34.419Z,13.71
2022-10-24T07:40:05.097Z,13.76
2022-10-24T07:42:35.514Z,13.83
2022-10-24T07:45:07.117Z,13.86
2022-10-24T07:47:37.612Z,13.98
2022-10-24T07:50:08.943Z,14.01
2022-10-24T07:52:39.264Z,14.16
2022-10-24T07:55:10.143Z,14.18
2022-10-24T07:57:40.779Z,14.32
2022-10-24T08:00:12.110Z,14.34
2022-10-24T08:02:42.884Z,14.34
2022-10-24T08:05:13.498Z,14.34
2022-10-24T08:07:48.564Z,14.48
2022-10-24T08:10:15.983Z,14.53
2022-10-24T08:12:46.566Z,14.60
2022-10-24T08:15:17.240Z,14.70
2022-10-24T08:17:47.672Z,14.78
2022-10-24T08:20:18.068Z,14.83
2022-10-24T08:22:48.658Z,14.94
2022-10-24T08:25:19.078Z,15.14
2022-10-24T08:27:49.958Z,15.21
2022-10-24T08:30:20.726Z,15.32
2022-10-24T08:32:51.226Z,15.59
2022-10-24T08:35:22.078Z,15.56
2022-10-24T08:37:52.451Z,15.62
2022-10-24T08:40:22.773Z,15.74
2022-10-24T08:42:53.182Z,15.76
2022-10-24T08:45:30.040Z,15.84
2022-10-24T08:48:06.224Z,15.94
2022-10-24T08:50:38.140Z,15.99
2022-10-24T08:53:17.611Z,16.15
2022-10-24T08:55:52.927Z,16.20
2022-10-24T08:58:29.187Z,16.24
2022-10-24T09:01:02.503Z,16.21
2022-10-24T09:03:56.474Z,16.19
2022-10-24T09:06:22.906Z,16.30
2022-10-24T09:09:02.154Z,16.29
2022-10-24T09:11:50.391Z,16.42
2022-10-24T09:14:23.754Z,16.37
2022-10-24T09:16:57.078Z,16.44
2022-10-24T09:19:30.578Z,16.45
2022-10-24T09:22:02.009Z,16.54
2022-10-24T09:24:40.963Z,16.60
2022-10-24T09:29:51.489Z,16.98
2022-10-24T09:32:26.304Z,16.86
2022-10-24T09:34:58.245Z,16.90
2022-10-24T09:37:44.377Z,16.92
2022-10-24T09:40:24.536Z,16.96
2022-10-24T09:43:22.114Z,17.12
2022-10-24T09:45:55.045Z,17.39
2022-10-24T09:48:37.264Z,17.36
2022-10-24T09:51:09.304Z,17.42
2022-10-24T09:53:42.634Z,17.36
2022-10-24T09:56:15.369Z,17.26
2022-10-24T09:58:45.909Z,17.14
2022-10-24T10:01:19.419Z,17.30
2022-10-24T10:04:08.876Z,17.26
2022-10-24T10:06:38.016Z,17.31
2022-10-24T10:09:11.774Z,17.44
2022-10-24T10:11:49.363Z,17.52
2022-10-24T10:14:24.310Z,17.46
2022-10-24T10:17:06.679Z,17.52
2022-10-24T10:19:38.515Z,17.62
2022-10-24T10:22:27.045Z,17.54
2022-10-24T10:24:58.675Z,17.72
2022-10-24T10:27:40.895Z,17.61
2022-10-24T10:30:16.988Z,17.59
2022-10-24T10:32:53.511Z,17.57
2022-10-24T10:35:27.022Z,17.62
2022-10-24T10:38:06.243Z,17.72
2022-10-24T10:40:42.661Z,17.70
2022-10-24T10:43:40.075Z,17.72
2022-10-24T10:46:34.707Z,17.72
2022-10-24T10:49:10.700Z,17.66
2022-10-24T10:51:47.296Z,17.65
2022-10-24T10:54:41.936Z,17.53
2022-10-24T10:57:26.527Z,17.63
2022-10-24T10:59:59.101Z,17.67
2022-10-24T11:02:50.804Z,17.62
2022-10-24T11:05:24.380Z,17.59
2022-10-24T11:08:09.639Z,17.70
2022-10-24T11:10:45.792Z,17.86
2022-10-24T11:13:22.053Z,17.71
2022-10-24T11:15:55.506Z,17.83
2022-10-24T11:18:31.639Z,17.86
2022-10-24T11:21:07.032Z,17.88
2022-10-24T11:23:46.318Z,17.83
2022-10-24T11:26:34.965Z,17.88
2022-10-24T11:29:14.209Z,17.88
2022-10-24T11:31:50.493Z,17.86
2022-10-24T11:37:16.494Z,17.86
2022-10-24T11:40:08.236Z,17.92
2022-10-24T11:42:50.237Z,17.88
2022-10-24T11:45:23.739Z,17.87
2022-10-24T11:47:57.746Z,18.01
2022-10-24T11:50:40.290Z,18.03
2022-10-24T11:53:16.408Z,17.86
2022-10-24T11:55:49.884Z,18.01
2022-10-24T11:58:23.077Z,18.02
2022-10-24T12:01:02.419Z,18.07
2022-10-24T12:04:04.822Z,18.08
2022-10-24T12:06:53.533Z,18.08
2022-10-24T12:09:57.293Z,18.12
2022-10-24T12:12:50.264Z,18.14
2022-10-24T12:15:43.643Z,18.13
2022-10-24T12:18:32.265Z,18.42
2022-10-24T12:21:14.851Z,18.37
2022-10-24T12:23:48.382Z,18.36
2022-10-24T12:26:22.095Z,18.47
2022-10-24T12:29:04.129Z,18.32
2022-10-24T12:31:37.744Z,18.29
2022-10-24T12:34:20.585Z,18.32
2022-10-24T12:37:11.810Z,18.29
2022-10-24T12:39:47.376Z,18.36
2022-10-24T12:42:26.445Z,18.40
2022-10-24T12:45:08.964Z,18.37
2022-10-24T12:47:45.575Z,18.37
2022-10-24T12:50:25.988Z,18.36
2022-10-24T12:53:20.782Z,18.31
2022-10-24T12:55:54.797Z,18.46
2022-10-24T12:58:36.618Z,18.76
2022-10-24T13:01:13.471Z,19.11
2022-10-24T13:03:50.116Z,19.15
2022-10-24T13:06:29.611Z,19.01
2022-10-24T13:09:14.647Z,19.02
2022-10-24T13:12:12.210Z,18.90
2022-10-24T13:15:03.950Z,18.94
2022-10-24T13:17:46.499Z,18.88
2022-10-24T13:20:20.244Z,18.82
2022-10-24T13:22:51.659Z,18.77
2022-10-24T13:25:34.016Z,18.86
2022-10-24T13:28:25.451Z,18.96
2022-10-24T13:31:04.573Z,19.01
2022-10-24T13:33:37.966Z,19.10
2022-10-24T13:36:18.679Z,19.14
2022-10-24T13:38:57.935Z,19.18
2022-10-24T13:41:37.733Z,19.18
2022-10-24T13:44:29.151Z,18.98
2022-10-24T13:47:14.373Z,18.91
2022-10-24T13:50:07.372Z,18.85
2022-10-24T13:52:49.247Z,18.73
2022-10-24T13:55:33.468Z,18.60
2022-10-24T13:58:21.723Z,18.52
2022-10-24T14:01:07.921Z,18.49
2022-10-24T14:03:42.442Z,18.52
2022-10-24T14:06:12.376Z,18.48
2022-10-24T14:08:57.467Z,18.57
2022-10-24T14:11:26.263Z,18.48
2022-10-24T14:14:03.942Z,18.51
2022-10-24T14:16:34.514Z,18.46
2022-10-24T14:19:16.019Z,18.52
2022-10-24T14:21:46.453Z,18.52
2022-10-24T14:24:19.542Z,18.60
2022-10-24T14:26:54.019Z,18.68
2022-10-24T14:29:27.760Z,18.69
2022-10-24T14:32:03.877Z,18.60
2022-10-24T14:34:36.751Z,18.54
2022-10-24T14:37:10.188Z,18.48
2022-10-24T14:39:41.669Z,18.52
2022-10-24T14:42:18.358Z,18.46
2022-10-24T14:44:52.863Z,18.38
2022-10-24T14:47:35.360Z,18.48
2022-10-24T14:50:08.691Z,18.54
2022-10-24T14:52:40.806Z,18.41
2022-10-24T14:55:21.864Z,18.50
2022-10-24T14:57:54.608Z,18.32
2022-10-24T15:00:27.245Z,18.26
2022-10-24T15:03:01.211Z,18.20
2022-10-24T15:05:35.114Z,18.10
2022-10-24T15:08:21.980Z,18.11
2022-10-24T15:10:46.834Z,18.22
2022-10-24T15:13:23.477Z,18.19
2022-10-24T15:15:59.710Z,18.08
2022-10-24T15:18:43.866Z,18.08
2022-10-24T15:21:20.302Z,18.01
2022-10-24T15:23:56.845Z,17.90
2022-10-24T15:26:43.382Z,17.75
2022-10-24T15:29:16.849Z,17.80
2022-10-24T15:31:49.255Z,17.75
2022-10-24T15:34:24.791Z,17.67
2022-10-24T15:36:56.882Z,17.69
2022-10-24T15:39:27.861Z,17.71
2022-10-24T15:41:58.810Z,17.59
2022-10-24T15:44:31.506Z,17.56
2022-10-24T15:47:02.250Z,17.46
2022-10-24T15:49:32.697Z,17.40
2022-10-24T15:52:08.106Z,17.40
2022-10-24T15:54:38.482Z,17.43
2022-10-24T15:57:11.856Z,17.34
2022-10-24T15:59:42.173Z,17.36
2022-10-24T16:02:24.257Z,17.45
2022-10-24T16:04:54.627Z,17.32
2022-10-24T16:07:24.952Z,17.38
2022-10-24T16:09:55.644Z,17.30
2022-10-24T16:12:26.038Z,17.31
2022-10-24T16:14:56.420Z,17.24
2022-10-24T16:17:26.919Z,17.26
2022-10-24T16:19:57.316Z,17.22
2022-10-24T16:22:27.746Z,17.34
2022-10-24T16:24:58.212Z,17.14
2022-10-24T16:27:28.533Z,17.10
2022-10-24T16:29:58.896Z,17.10
2022-10-24T16:32:29.431Z,17.14
2022-10-24T16:34:59.844Z,17.09
2022-10-24T16:37:30.295Z,17.06
2022-10-24T16:40:00.882Z,17.04
2022-10-24T16:42:31.249Z,16.98
2022-10-24T16:45:02.498Z,16.99
2022-10-24T16:47:33.172Z,17.07
2022-10-24T16:50:04.437Z,16.82
2022-10-24T16:52:36.317Z,16.79
2022-10-24T16:55:07.163Z,16.83
2022-10-24T16:57:37.653Z,16.82
2022-10-24T17:00:09.400Z,16.86
2022-10-24T17:02:39.907Z,16.76
2022-10-24T17:05:11.742Z,16.78
2022-10-24T17:07:43.238Z,16.88
2022-10-24T17:10:14.440Z,16.74
2022-10-24T17:12:49.458Z,16.80
2022-10-24T17:15:22.399Z,16.76
2022-10-24T17:17:53.230Z,16.66
2022-10-24T17:20:23.625Z,16.59
2022-10-24T17:22:54.139Z,16.76
2022-10-24T17:25:27.133Z,16.64
2022-10-24T17:27:58.877Z,16.55
2022-10-24T17:30:32.985Z,16.56
2022-10-24T17:33:03.535Z,16.53
2022-10-24T17:35:35.765Z,16.51
2022-10-24T17:38:09.321Z,16.46
2022-10-24T17:40:45.616Z,16.54
2022-10-24T17:43:22.176Z,16.44
2022-10-24T17:45:54.422Z,16.38
2022-10-24T17:48:25.486Z,16.40
2022-10-24T17:50:58.580Z,16.36
2022-10-24T17:53:28.972Z,16.44
2022-10-24T17:55:59.405Z,16.40
2022-10-24T17:58:29.820Z,16.38
2022-10-24T18:01:00.968Z,16.24
2022-10-24T18:03:31.422Z,16.32
2022-10-24T18:06:03.546Z,16.35
2022-10-24T18:08:34.103Z,16.42
2022-10-24T18:11:08.521Z,16.30
2022-10-24T18:13:39.981Z,16.20
2022-10-24T18:16:11.915Z,16.22
2022-10-24T18:18:43.817Z,16.18
2022-10-24T18:21:24.730Z,16.10
2022-10-24T18:23:56.294Z,16.12
2022-10-24T18:26:28.083Z,16.16
2022-10-24T18:28:58.460Z,16.16
2022-10-24T18:31:30.837Z,16.18
2022-10-24T18:34:06.361Z,15.98
2022-10-24T18:36:34.228Z,15.98
2022-10-24T18:39:05.852Z,15.88
2022-10-24T18:41:51.028Z,15.85
2022-10-24T18:44:34.488Z,15.89
2022-10-24T18:47:07.973Z,15.83
2022-10-24T18:49:44.043Z,15.89
2022-10-24T18:52:32.389Z,15.94
2022-10-24T18:55:23.778Z,15.86
2022-10-24T18:57:54.439Z,15.74
2022-10-24T19:00:29.309Z,15.90
2022-10-24T19:03:22.663Z,15.81
2022-10-24T19:05:59.158Z,15.70
2022-10-24T19:08:29.695Z,15.68
2022-10-24T19:11:00.287Z,15.72
2022-10-24T19:13:30.825Z,15.67
2022-10-24T19:16:05.171Z,15.69
2022-10-24T19:18:37.677Z,15.72
2022-10-24T19:21:08.102Z,15.70
2022-10-24T19:23:38.590Z,15.68
2022-10-24T19:26:10.686Z,15.73
2022-10-24T19:28:41.309Z,15.80
2022-10-24T19:31:13.405Z,15.75
2022-10-24T19:33:44.579Z,15.72
2022-10-24T19:36:19.146Z,15.58
2022-10-24T19:38:48.232Z,15.54
2022-10-24T19:41:18.609Z,15.57
2022-10-24T19:43:49.010Z,15.61
2022-10-24T19:46:20.462Z,15.61
2022-10-24T19:48:52.976Z,15.57
2022-10-24T19:51:25.111Z,15.52
2022-10-24T19:53:57.053Z,15.41
2022-10-24T19:56:29.191Z,15.43
2022-10-24T19:58:59.933Z,15.34
2022-10-24T20:01:32.435Z,15.28
2022-10-24T20:04:02.988Z,15.28
2022-10-24T20:06:33.667Z,15.33
2022-10-24T20:09:04.127Z,15.44
2022-10-24T20:11:34.698Z,15.35
2022-10-24T20:14:05.080Z,15.36
2022-10-24T20:16:35.546Z,15.27
2022-10-24T20:19:06.776Z,15.30
2022-10-24T20:21:37.616Z,15.22
2022-10-24T20:24:08.756Z,15.24
2022-10-24T20:26:39.143Z,15.28
2022-10-24T20:29:09.531Z,15.20
2022-10-24T20:31:43.275Z,15.22
2022-10-24T20:34:14.943Z,15.34
2022-10-24T20:36:47.959Z,15.24
2022-10-24T20:39:20.040Z,15.33
2022-10-24T20:41:53.967Z,15.26
2022-10-24T20:44:22.904Z,15.16
2022-10-24T20:46:54.926Z,15.12
2022-10-24T20:49:25.667Z,15.12
2022-10-24T20:51:56.069Z,15.24
2022-10-24T20:54:26.536Z,15.12
2022-10-24T20:56:57.170Z,15.11
2022-10-24T20:59:27.684Z,15.27
2022-10-24T21:01:58.190Z,15.14
2022-10-24T21:04:28.769Z,15.17
2022-10-24T21:06:59.073Z,15.08
2022-10-24T21:09:29.460Z,15.16
2022-10-24T21:11:59.864Z,15.16
2022-10-24T21:14:30.250Z,15.04
2022-10-24T21:17:00.563Z,14.97
2022-10-24T21:19:31.020Z,15.06
2022-10-24T21:22:01.418Z,14.96
2022-10-24T21:24:31.761Z,15.06
2022-10-24T21:27:02.628Z,15.06
2022-10-24T21:29:34.135Z,14.93
2022-10-24T21:32:04.764Z,14.93
2022-10-24T21:34:36.017Z,14.94
2022-10-24T21:37:06.910Z,14.83
2022-10-24T21:39:37.238Z,14.87
2022-10-24T21:42:07.637Z,14.86
2022-10-24T21:44:37.945Z,14.91
2022-10-24T21:47:08.284Z,14.80
2022-10-24T21:49:38.670Z,14.78
2022-10-24T21:52:09.227Z,14.72
2022-10-24T21:54:39.552Z,14.72
2022-10-24T21:57:10.009Z,14.68
2022-10-24T21:59:41.531Z,14.68
2022-10-24T22:02:12.027Z,14.74
2022-10-24T22:04:42.496Z,14.67
2022-10-24T22:07:12.986Z,14.63
2022-10-24T22:09:43.526Z,14.67
2022-10-24T22:12:13.971Z,14.63
2022-10-24T22:14:44.373Z,14.71
2022-10-24T22:17:14.800Z,14.68
2022-10-24T22:19:45.238Z,14.66
2022-10-24T22:22:16.446Z,14.74
2022-10-24T22:24:46.929Z,14.77
2022-10-24T22:27:17.319Z,14.82
2022-10-24T22:29:47.706Z,14.88
2022-10-24T22:32:18.379Z,14.78
2022-10-24T22:34:49.043Z,14.72
2022-10-24T22:37:27.720Z,14.66
2022-10-24T22:39:58.530Z,14.68
2022-10-24T22:42:28.990Z,14.62
2022-10-24T22:44:59.908Z,14.48
2022-10-24T22:48:03.747Z,14.42
2022-10-24T22:50:54.683Z,14.31
2022-10-24T22:53:28.196Z,14.30
2022-10-24T22:56:07.333Z,14.31
2022-10-24T22:58:38.175Z,14.40
2022-10-24T23:01:32.726Z,14.30
2022-10-24T23:04:26.725Z,14.26
2022-10-24T23:07:22.500Z,14.30
2022-10-24T23:09:52.357Z,14.28
2022-10-24T23:12:23.699Z,14.30
2022-10-24T23:14:54.454Z,14.28
2022-10-24T23:17:27.601Z,14.19
2022-10-24T23:19:58.460Z,14.10
2022-10-24T23:22:31.305Z,14.06
2022-10-24T23:25:02.727Z,14.05
2022-10-24T23:27:41.127Z,14.12
2022-10-24T23:30:17.172Z,14.04
2022-10-24T23:32:49.208Z,14.02
2022-10-24T23:35:21.637Z,14.02
2022-10-24T23:37:53.674Z,13.98
2022-10-24T23:40:35.259Z,14.06
2022-10-24T23:43:05.994Z,14.00
2022-10-24T23:45:39.464Z,14.03
2022-10-24T23:48:43.129Z,14.00
2022-10-24T23:51:19.299Z,13.88
2022-10-24T23:53:52.945Z,13.88
2022-10-24T23:56:27.515Z,13.78
2022-10-24T23:58:57.949Z,13.80
